sensor_id;sensor_type;location;lat;lon;timestamp;P1;durP1;ratioP1;P2;durP2;ratioP2
65971;SDS011;52726;48.852;9.152;2023-09-12T00:00:50;6.32;;;4.50;;
65971;SDS011;52726;48.852;9.152;2023-09-12T00:03:18;9.85;;;4.55;;
65971;SDS011;52726;48.852;9.152;2023-09-12T00:05:54;9.10;;;4.05;;
65971;SDS011;52726;48.852;9.152;2023-09-12T00:08:21;7.47;;;4.32;;
65971;SDS011;52726;48.852;9.152;2023-09-12T00:10:47;9.95;;;5.03;;
65971;SDS011;52726;48.852;9.152;2023-09-12T00:13:26;5.32;;;3.90;;
65971;SDS011;52726;48.852;9.152;2023-09-12T00:15:52;8.57;;;5.03;;
65971;SDS011;52726;48.852;9.152;2023-09-12T00:18:17;5.90;;;4.43;;
65971;SDS011;52726;48.852;9.152;2023-09-12T00:20:42;11.05;;;5.10;;
65971;SDS011;52726;48.852;9.152;2023-09-12T00:23:07;8.50;;;5.00;;
65971;SDS011;52726;48.852;9.152;2023-09-12T00:25:33;10.05;;;4.20;;
65971;SDS011;52726;48.852;9.152;2023-09-12T00:27:58;11.75;;;4.30;;
65971;SDS011;52726;48.852;9.152;2023-09-12T00:30:23;6.13;;;4.07;;
65971;SDS011;52726;48.852;9.152;2023-09-12T00:32:49;7.10;;;4.45;;
65971;SDS011;52726;48.852;9.152;2023-09-12T00:35:14;12.23;;;4.70;;
65971;SDS011;52726;48.852;9.152;2023-09-12T00:37:39;12.18;;;4.72;;
65971;SDS011;52726;48.852;9.152;2023-09-12T00:40:05;7.65;;;4.53;;
65971;SDS011;52726;48.852;9.152;2023-09-12T00:42:30;7.65;;;4.75;;
65971;SDS011;52726;48.852;9.152;2023-09-12T00:44:56;6.90;;;4.53;;
65971;SDS011;52726;48.852;9.152;2023-09-12T00:47:21;9.55;;;4.00;;
65971;SDS011;52726;48.852;9.152;2023-09-12T00:49:48;6.45;;;4.50;;
65971;SDS011;52726;48.852;9.152;2023-09-12T00:52:15;8.65;;;4.65;;
65971;SDS011;52726;48.852;9.152;2023-09-12T00:54:41;7.75;;;4.68;;
65971;SDS011;52726;48.852;9.152;2023-09-12T00:57:07;9.68;;;5.45;;
65971;SDS011;52726;48.852;9.152;2023-09-12T00:59:32;7.70;;;4.80;;
65971;SDS011;52726;48.852;9.152;2023-09-12T01:01:58;7.50;;;4.90;;
65971;SDS011;52726;48.852;9.152;2023-09-12T01:04:24;8.02;;;4.55;;
65971;SDS011;52726;48.852;9.152;2023-09-12T01:06:51;7.55;;;4.93;;
65971;SDS011;52726;48.852;9.152;2023-09-12T01:09:17;6.95;;;4.75;;
65971;SDS011;52726;48.852;9.152;2023-09-12T01:11:42;9.27;;;4.32;;
65971;SDS011;52726;48.852;9.152;2023-09-12T01:14:07;6.43;;;4.38;;
65971;SDS011;52726;48.852;9.152;2023-09-12T01:16:33;9.25;;;4.50;;
65971;SDS011;52726;48.852;9.152;2023-09-12T01:18:59;6.78;;;4.85;;
65971;SDS011;52726;48.852;9.152;2023-09-12T01:21:31;8.98;;;4.43;;
65971;SDS011;52726;48.852;9.152;2023-09-12T01:24:17;5.80;;;4.05;;
65971;SDS011;52726;48.852;9.152;2023-09-12T01:29:43;8.57;;;4.60;;
65971;SDS011;52726;48.852;9.152;2023-09-12T01:32:10;15.15;;;5.53;;
65971;SDS011;52726;48.852;9.152;2023-09-12T01:34:39;9.15;;;5.20;;
65971;SDS011;52726;48.852;9.152;2023-09-12T01:37:04;9.43;;;5.45;;
65971;SDS011;52726;48.852;9.152;2023-09-12T01:39:29;11.48;;;5.15;;
65971;SDS011;52726;48.852;9.152;2023-09-12T01:41:55;7.70;;;4.32;;
65971;SDS011;52726;48.852;9.152;2023-09-12T01:44:24;7.40;;;5.03;;
65971;SDS011;52726;48.852;9.152;2023-09-12T01:46:50;6.88;;;4.45;;
65971;SDS011;52726;48.852;9.152;2023-09-12T01:49:18;7.00;;;4.45;;
65971;SDS011;52726;48.852;9.152;2023-09-12T01:51:46;6.43;;;4.32;;
65971;SDS011;52726;48.852;9.152;2023-09-12T01:54:11;9.13;;;4.90;;
65971;SDS011;52726;48.852;9.152;2023-09-12T01:56:37;6.38;;;4.55;;
65971;SDS011;52726;48.852;9.152;2023-09-12T01:59:03;8.10;;;4.97;;
65971;SDS011;52726;48.852;9.152;2023-09-12T02:01:29;13.65;;;5.43;;
65971;SDS011;52726;48.852;9.152;2023-09-12T02:03:54;6.72;;;4.10;;
65971;SDS011;52726;48.852;9.152;2023-09-12T02:06:20;10.15;;;5.00;;
65971;SDS011;52726;48.852;9.152;2023-09-12T02:08:45;9.32;;;5.55;;
65971;SDS011;52726;48.852;9.152;2023-09-12T02:11:10;7.28;;;4.70;;
65971;SDS011;52726;48.852;9.152;2023-09-12T02:13:36;7.05;;;5.03;;
65971;SDS011;52726;48.852;9.152;2023-09-12T02:16:01;10.77;;;5.90;;
65971;SDS011;52726;48.852;9.152;2023-09-12T02:18:28;8.32;;;4.85;;
65971;SDS011;52726;48.852;9.152;2023-09-12T02:20:53;10.65;;;5.53;;
65971;SDS011;52726;48.852;9.152;2023-09-12T02:23:19;6.60;;;4.68;;
65971;SDS011;52726;48.852;9.152;2023-09-12T02:25:44;9.52;;;5.18;;
65971;SDS011;52726;48.852;9.152;2023-09-12T02:28:09;9.15;;;5.47;;
65971;SDS011;52726;48.852;9.152;2023-09-12T02:30:37;8.05;;;5.20;;
65971;SDS011;52726;48.852;9.152;2023-09-12T02:33:03;11.73;;;5.72;;
65971;SDS011;52726;48.852;9.152;2023-09-12T02:35:29;8.57;;;5.07;;
65971;SDS011;52726;48.852;9.152;2023-09-12T02:37:54;7.90;;;4.60;;
65971;SDS011;52726;48.852;9.152;2023-09-12T02:40:19;9.00;;;5.18;;
65971;SDS011;52726;48.852;9.152;2023-09-12T02:42:45;10.98;;;4.88;;
65971;SDS011;52726;48.852;9.152;2023-09-12T02:45:10;13.70;;;4.97;;
65971;SDS011;52726;48.852;9.152;2023-09-12T02:47:35;8.55;;;5.13;;
65971;SDS011;52726;48.852;9.152;2023-09-12T02:50:01;13.57;;;5.22;;
65971;SDS011;52726;48.852;9.152;2023-09-12T02:52:26;7.13;;;4.72;;
65971;SDS011;52726;48.852;9.152;2023-09-12T02:54:51;10.27;;;4.55;;
65971;SDS011;52726;48.852;9.152;2023-09-12T02:57:17;11.75;;;5.15;;
65971;SDS011;52726;48.852;9.152;2023-09-12T02:59:42;7.70;;;4.63;;
65971;SDS011;52726;48.852;9.152;2023-09-12T03:02:07;7.22;;;5.00;;
65971;SDS011;52726;48.852;9.152;2023-09-12T03:04:34;9.82;;;5.30;;
65971;SDS011;52726;48.852;9.152;2023-09-12T03:07:00;11.57;;;5.40;;
65971;SDS011;52726;48.852;9.152;2023-09-12T03:09:25;6.05;;;4.40;;
65971;SDS011;52726;48.852;9.152;2023-09-12T03:11:50;5.55;;;4.43;;
65971;SDS011;52726;48.852;9.152;2023-09-12T03:14:16;8.02;;;5.03;;
65971;SDS011;52726;48.852;9.152;2023-09-12T03:16:41;9.02;;;5.00;;
65971;SDS011;52726;48.852;9.152;2023-09-12T03:19:06;7.43;;;4.70;;
65971;SDS011;52726;48.852;9.152;2023-09-12T03:21:32;11.45;;;5.07;;
65971;SDS011;52726;48.852;9.152;2023-09-12T03:23:57;8.95;;;4.97;;
65971;SDS011;52726;48.852;9.152;2023-09-12T03:26:22;10.00;;;5.43;;
65971;SDS011;52726;48.852;9.152;2023-09-12T03:28:48;8.02;;;4.43;;
65971;SDS011;52726;48.852;9.152;2023-09-12T03:31:15;6.53;;;4.50;;
65971;SDS011;52726;48.852;9.152;2023-09-12T03:33:41;10.32;;;5.07;;
65971;SDS011;52726;48.852;9.152;2023-09-12T03:36:07;7.32;;;4.75;;
65971;SDS011;52726;48.852;9.152;2023-09-12T03:38:33;11.15;;;6.18;;
65971;SDS011;52726;48.852;9.152;2023-09-12T03:40:59;11.25;;;5.50;;
65971;SDS011;52726;48.852;9.152;2023-09-12T03:43:25;6.78;;;5.20;;
65971;SDS011;52726;48.852;9.152;2023-09-12T03:45:50;12.68;;;5.30;;
65971;SDS011;52726;48.852;9.152;2023-09-12T03:48:15;9.07;;;5.07;;
65971;SDS011;52726;48.852;9.152;2023-09-12T03:50:41;7.72;;;5.03;;
65971;SDS011;52726;48.852;9.152;2023-09-12T03:53:06;7.28;;;5.28;;
65971;SDS011;52726;48.852;9.152;2023-09-12T03:55:31;8.65;;;5.05;;
65971;SDS011;52726;48.852;9.152;2023-09-12T03:57:57;8.02;;;5.22;;
65971;SDS011;52726;48.852;9.152;2023-09-12T04:00:22;7.78;;;5.35;;
65971;SDS011;52726;48.852;9.152;2023-09-12T04:02:47;9.55;;;5.13;;
65971;SDS011;52726;48.852;9.152;2023-09-12T04:05:13;10.18;;;5.40;;
65971;SDS011;52726;48.852;9.152;2023-09-12T04:07:39;8.75;;;4.80;;
65971;SDS011;52726;48.852;9.152;2023-09-12T04:10:05;9.93;;;4.75;;
65971;SDS011;52726;48.852;9.152;2023-09-12T04:12:30;10.60;;;5.30;;
65971;SDS011;52726;48.852;9.152;2023-09-12T04:14:56;7.82;;;4.75;;
65971;SDS011;52726;48.852;9.152;2023-09-12T04:17:21;10.75;;;4.78;;
65971;SDS011;52726;48.852;9.152;2023-09-12T04:19:46;8.68;;;4.75;;
65971;SDS011;52726;48.852;9.152;2023-09-12T04:22:12;9.23;;;5.00;;
65971;SDS011;52726;48.852;9.152;2023-09-12T04:24:37;11.25;;;5.40;;
65971;SDS011;52726;48.852;9.152;2023-09-12T04:27:02;6.95;;;4.78;;
65971;SDS011;52726;48.852;9.152;2023-09-12T04:29:28;9.30;;;5.20;;
65971;SDS011;52726;48.852;9.152;2023-09-12T04:31:53;7.05;;;4.70;;
65971;SDS011;52726;48.852;9.152;2023-09-12T04:34:24;8.02;;;5.80;;
65971;SDS011;52726;48.852;9.152;2023-09-12T04:36:50;12.43;;;5.25;;
65971;SDS011;52726;48.852;9.152;2023-09-12T04:39:15;8.27;;;5.22;;
65971;SDS011;52726;48.852;9.152;2023-09-12T04:41:41;10.10;;;5.28;;
65971;SDS011;52726;48.852;9.152;2023-09-12T04:44:06;7.85;;;4.40;;
65971;SDS011;52726;48.852;9.152;2023-09-12T04:46:31;7.95;;;4.97;;
65971;SDS011;52726;48.852;9.152;2023-09-12T04:48:57;26.80;;;11.43;;
65971;SDS011;52726;48.852;9.152;2023-09-12T04:51:22;21.35;;;9.57;;
65971;SDS011;52726;48.852;9.152;2023-09-12T04:53:47;19.20;;;8.52;;
65971;SDS011;52726;48.852;9.152;2023-09-12T04:56:16;13.23;;;6.43;;
65971;SDS011;52726;48.852;9.152;2023-09-12T04:58:42;11.52;;;5.20;;
65971;SDS011;52726;48.852;9.152;2023-09-12T05:01:07;7.78;;;4.68;;
65971;SDS011;52726;48.852;9.152;2023-09-12T05:03:33;6.45;;;4.53;;
65971;SDS011;52726;48.852;9.152;2023-09-12T05:05:58;7.88;;;5.07;;
65971;SDS011;52726;48.852;9.152;2023-09-12T05:08:24;9.27;;;5.18;;
65971;SDS011;52726;48.852;9.152;2023-09-12T05:10:49;10.48;;;5.15;;
65971;SDS011;52726;48.852;9.152;2023-09-12T05:13:15;7.30;;;4.88;;
65971;SDS011;52726;48.852;9.152;2023-09-12T05:15:40;8.82;;;4.78;;
65971;SDS011;52726;48.852;9.152;2023-09-12T05:18:06;7.80;;;4.47;;
65971;SDS011;52726;48.852;9.152;2023-09-12T05:20:32;9.40;;;4.93;;
65971;SDS011;52726;48.852;9.152;2023-09-12T05:22:58;7.88;;;4.53;;
65971;SDS011;52726;48.852;9.152;2023-09-12T05:25:23;10.13;;;4.63;;
65971;SDS011;52726;48.852;9.152;2023-09-12T05:27:49;10.15;;;4.43;;
65971;SDS011;52726;48.852;9.152;2023-09-12T05:30:14;8.25;;;4.85;;
65971;SDS011;52726;48.852;9.152;2023-09-12T05:32:40;7.40;;;4.50;;
65971;SDS011;52726;48.852;9.152;2023-09-12T05:35:06;6.90;;;4.45;;
65971;SDS011;52726;48.852;9.152;2023-09-12T05:37:32;7.05;;;4.25;;
65971;SDS011;52726;48.852;9.152;2023-09-12T05:39:57;6.35;;;4.47;;
65971;SDS011;52726;48.852;9.152;2023-09-12T05:42:22;9.63;;;4.60;;
65971;SDS011;52726;48.852;9.152;2023-09-12T05:44:48;5.65;;;4.10;;
65971;SDS011;52726;48.852;9.152;2023-09-12T05:47:14;7.32;;;4.93;;
65971;SDS011;52726;48.852;9.152;2023-09-12T05:49:40;9.68;;;4.18;;
65971;SDS011;52726;48.852;9.152;2023-09-12T05:52:05;6.90;;;4.97;;
65971;SDS011;52726;48.852;9.152;2023-09-12T05:54:31;7.90;;;4.75;;
65971;SDS011;52726;48.852;9.152;2023-09-12T05:56:56;5.80;;;4.30;;
65971;SDS011;52726;48.852;9.152;2023-09-12T05:59:21;7.93;;;4.65;;
65971;SDS011;52726;48.852;9.152;2023-09-12T06:01:47;13.60;;;5.10;;
65971;SDS011;52726;48.852;9.152;2023-09-12T06:04:13;7.75;;;4.40;;
65971;SDS011;52726;48.852;9.152;2023-09-12T06:06:39;6.85;;;4.85;;
65971;SDS011;52726;48.852;9.152;2023-09-12T06:09:04;6.88;;;4.55;;
65971;SDS011;52726;48.852;9.152;2023-09-12T06:11:30;9.75;;;3.97;;
65971;SDS011;52726;48.852;9.152;2023-09-12T06:13:56;7.03;;;4.60;;
65971;SDS011;52726;48.852;9.152;2023-09-12T06:16:21;6.72;;;4.25;;
65971;SDS011;52726;48.852;9.152;2023-09-12T06:18:47;6.88;;;4.20;;
65971;SDS011;52726;48.852;9.152;2023-09-12T06:21:13;8.32;;;4.32;;
65971;SDS011;52726;48.852;9.152;2023-09-12T06:23:39;8.55;;;4.45;;
65971;SDS011;52726;48.852;9.152;2023-09-12T06:26:04;5.93;;;3.88;;
65971;SDS011;52726;48.852;9.152;2023-09-12T06:28:30;7.75;;;3.92;;
65971;SDS011;52726;48.852;9.152;2023-09-12T06:30:56;5.70;;;4.05;;
65971;SDS011;52726;48.852;9.152;2023-09-12T06:33:25;9.82;;;4.65;;
65971;SDS011;52726;48.852;9.152;2023-09-12T06:35:51;8.30;;;4.53;;
65971;SDS011;52726;48.852;9.152;2023-09-12T06:38:18;5.72;;;4.18;;
65971;SDS011;52726;48.852;9.152;2023-09-12T06:40:44;6.43;;;3.95;;
65971;SDS011;52726;48.852;9.152;2023-09-12T06:43:09;6.75;;;3.75;;
65971;SDS011;52726;48.852;9.152;2023-09-12T06:45:35;6.40;;;4.25;;
65971;SDS011;52726;48.852;9.152;2023-09-12T06:48:05;7.20;;;4.30;;
65971;SDS011;52726;48.852;9.152;2023-09-12T06:50:30;7.18;;;4.32;;
65971;SDS011;52726;48.852;9.152;2023-09-12T06:52:56;10.55;;;4.68;;
65971;SDS011;52726;48.852;9.152;2023-09-12T06:55:21;8.50;;;4.70;;
65971;SDS011;52726;48.852;9.152;2023-09-12T06:57:46;11.13;;;4.25;;
65971;SDS011;52726;48.852;9.152;2023-09-12T07:00:12;9.18;;;4.32;;
65971;SDS011;52726;48.852;9.152;2023-09-12T07:02:38;8.45;;;4.50;;
65971;SDS011;52726;48.852;9.152;2023-09-12T07:05:03;10.88;;;4.45;;
65971;SDS011;52726;48.852;9.152;2023-09-12T07:07:29;7.07;;;4.70;;
65971;SDS011;52726;48.852;9.152;2023-09-12T07:09:55;9.10;;;5.05;;
65971;SDS011;52726;48.852;9.152;2023-09-12T07:12:21;9.73;;;4.35;;
65971;SDS011;52726;48.852;9.152;2023-09-12T07:14:46;9.70;;;4.80;;
65971;SDS011;52726;48.852;9.152;2023-09-12T07:17:11;8.40;;;4.80;;
65971;SDS011;52726;48.852;9.152;2023-09-12T07:19:37;10.77;;;5.20;;
65971;SDS011;52726;48.852;9.152;2023-09-12T07:22:02;7.28;;;4.63;;
65971;SDS011;52726;48.852;9.152;2023-09-12T07:24:28;11.68;;;4.63;;
65971;SDS011;52726;48.852;9.152;2023-09-12T07:26:53;5.63;;;4.65;;
65971;SDS011;52726;48.852;9.152;2023-09-12T07:29:19;6.35;;;4.18;;
65971;SDS011;52726;48.852;9.152;2023-09-12T07:31:44;8.40;;;4.47;;
65971;SDS011;52726;48.852;9.152;2023-09-12T07:34:10;8.57;;;5.13;;
65971;SDS011;52726;48.852;9.152;2023-09-12T07:36:37;7.68;;;4.30;;
65971;SDS011;52726;48.852;9.152;2023-09-12T07:39:02;10.35;;;4.45;;
65971;SDS011;52726;48.852;9.152;2023-09-12T07:41:29;7.07;;;4.47;;
65971;SDS011;52726;48.852;9.152;2023-09-12T07:43:54;8.50;;;4.82;;
65971;SDS011;52726;48.852;9.152;2023-09-12T07:46:20;12.68;;;5.28;;
65971;SDS011;52726;48.852;9.152;2023-09-12T07:48:45;12.18;;;5.38;;
65971;SDS011;52726;48.852;9.152;2023-09-12T07:51:11;8.93;;;4.82;;
65971;SDS011;52726;48.852;9.152;2023-09-12T07:53:39;9.00;;;4.88;;
65971;SDS011;52726;48.852;9.152;2023-09-12T07:56:04;12.15;;;5.00;;
65971;SDS011;52726;48.852;9.152;2023-09-12T07:58:30;7.68;;;4.32;;
65971;SDS011;52726;48.852;9.152;2023-09-12T08:00:55;6.82;;;4.85;;
65971;SDS011;52726;48.852;9.152;2023-09-12T08:03:20;10.18;;;5.10;;
65971;SDS011;52726;48.852;9.152;2023-09-12T08:05:54;10.63;;;5.18;;
65971;SDS011;52726;48.852;9.152;2023-09-12T08:08:20;8.82;;;4.65;;
65971;SDS011;52726;48.852;9.152;2023-09-12T08:10:46;8.10;;;5.07;;
65971;SDS011;52726;48.852;9.152;2023-09-12T08:13:11;9.30;;;5.38;;
65971;SDS011;52726;48.852;9.152;2023-09-12T08:15:36;6.38;;;4.10;;
65971;SDS011;52726;48.852;9.152;2023-09-12T08:18:02;6.50;;;4.57;;
65971;SDS011;52726;48.852;9.152;2023-09-12T08:20:27;9.63;;;4.75;;
65971;SDS011;52726;48.852;9.152;2023-09-12T08:22:52;8.20;;;5.38;;
65971;SDS011;52726;48.852;9.152;2023-09-12T08:25:18;9.65;;;4.75;;
65971;SDS011;52726;48.852;9.152;2023-09-12T08:27:43;15.90;;;5.50;;
65971;SDS011;52726;48.852;9.152;2023-09-12T08:30:09;10.38;;;4.60;;
65971;SDS011;52726;48.852;9.152;2023-09-12T08:32:36;9.60;;;5.22;;
65971;SDS011;52726;48.852;9.152;2023-09-12T08:35:04;9.88;;;5.10;;
65971;SDS011;52726;48.852;9.152;2023-09-12T08:37:30;8.45;;;5.03;;
65971;SDS011;52726;48.852;9.152;2023-09-12T08:39:55;8.38;;;4.63;;
65971;SDS011;52726;48.852;9.152;2023-09-12T08:42:23;8.20;;;4.78;;
65971;SDS011;52726;48.852;9.152;2023-09-12T08:44:52;11.85;;;4.43;;
65971;SDS011;52726;48.852;9.152;2023-09-12T08:47:18;8.35;;;4.93;;
65971;SDS011;52726;48.852;9.152;2023-09-12T08:49:47;6.13;;;4.47;;
65971;SDS011;52726;48.852;9.152;2023-09-12T08:52:13;12.88;;;5.10;;
65971;SDS011;52726;48.852;9.152;2023-09-12T08:54:38;7.85;;;4.72;;
65971;SDS011;52726;48.852;9.152;2023-09-12T08:57:04;10.73;;;4.75;;
65971;SDS011;52726;48.852;9.152;2023-09-12T08:59:31;6.40;;;4.35;;
65971;SDS011;52726;48.852;9.152;2023-09-12T09:01:58;5.90;;;3.92;;
65971;SDS011;52726;48.852;9.152;2023-09-12T09:04:24;7.82;;;4.53;;
65971;SDS011;52726;48.852;9.152;2023-09-12T09:06:53;5.70;;;4.32;;
65971;SDS011;52726;48.852;9.152;2023-09-12T09:09:20;6.70;;;4.63;;
65971;SDS011;52726;48.852;9.152;2023-09-12T09:11:46;7.75;;;4.85;;
65971;SDS011;52726;48.852;9.152;2023-09-12T09:14:11;8.30;;;4.90;;
65971;SDS011;52726;48.852;9.152;2023-09-12T09:16:36;9.15;;;4.38;;
65971;SDS011;52726;48.852;9.152;2023-09-12T09:19:03;8.38;;;4.75;;
65971;SDS011;52726;48.852;9.152;2023-09-12T09:21:34;8.75;;;4.03;;
65971;SDS011;52726;48.852;9.152;2023-09-12T09:24:02;6.63;;;4.10;;
65971;SDS011;52726;48.852;9.152;2023-09-12T09:26:50;4.72;;;3.55;;
65971;SDS011;52726;48.852;9.152;2023-09-12T09:29:18;8.90;;;4.30;;
65971;SDS011;52726;48.852;9.152;2023-09-12T09:31:46;8.68;;;4.22;;
65971;SDS011;52726;48.852;9.152;2023-09-12T09:34:20;8.88;;;4.20;;
65971;SDS011;52726;48.852;9.152;2023-09-12T09:36:47;5.43;;;4.63;;
65971;SDS011;52726;48.852;9.152;2023-09-12T09:39:13;4.95;;;3.70;;
65971;SDS011;52726;48.852;9.152;2023-09-12T09:41:40;5.90;;;4.10;;
65971;SDS011;52726;48.852;9.152;2023-09-12T09:44:09;6.90;;;4.05;;
65971;SDS011;52726;48.852;9.152;2023-09-12T09:46:35;7.18;;;4.00;;
65971;SDS011;52726;48.852;9.152;2023-09-12T09:49:02;6.63;;;3.60;;
65971;SDS011;52726;48.852;9.152;2023-09-12T09:51:27;6.10;;;4.15;;
65971;SDS011;52726;48.852;9.152;2023-09-12T09:53:55;6.38;;;3.55;;
65971;SDS011;52726;48.852;9.152;2023-09-12T09:56:23;8.80;;;4.07;;
65971;SDS011;52726;48.852;9.152;2023-09-12T09:58:50;6.10;;;3.83;;
65971;SDS011;52726;48.852;9.152;2023-09-12T10:01:18;7.95;;;3.90;;
65971;SDS011;52726;48.852;9.152;2023-09-12T10:03:46;5.20;;;3.80;;
65971;SDS011;52726;48.852;9.152;2023-09-12T10:06:13;6.22;;;3.83;;
65971;SDS011;52726;48.852;9.152;2023-09-12T10:08:42;6.22;;;3.95;;
65971;SDS011;52726;48.852;9.152;2023-09-12T10:11:09;8.00;;;3.70;;
65971;SDS011;52726;48.852;9.152;2023-09-12T10:13:35;5.72;;;3.50;;
65971;SDS011;52726;48.852;9.152;2023-09-12T10:16:02;5.20;;;3.58;;
65971;SDS011;52726;48.852;9.152;2023-09-12T10:18:29;8.45;;;3.90;;
65971;SDS011;52726;48.852;9.152;2023-09-12T10:21:04;7.30;;;3.60;;
65971;SDS011;52726;48.852;9.152;2023-09-12T10:23:43;5.72;;;3.35;;
65971;SDS011;52726;48.852;9.152;2023-09-12T10:26:11;3.95;;;3.33;;
65971;SDS011;52726;48.852;9.152;2023-09-12T10:28:40;8.38;;;3.60;;
65971;SDS011;52726;48.852;9.152;2023-09-12T10:31:05;4.20;;;3.15;;
65971;SDS011;52726;48.852;9.152;2023-09-12T10:33:33;6.15;;;3.70;;
65971;SDS011;52726;48.852;9.152;2023-09-12T10:35:59;5.28;;;3.63;;
65971;SDS011;52726;48.852;9.152;2023-09-12T10:38:30;6.53;;;4.03;;
65971;SDS011;52726;48.852;9.152;2023-09-12T10:40:58;5.20;;;3.42;;
65971;SDS011;52726;48.852;9.152;2023-09-12T10:43:25;5.85;;;4.07;;
65971;SDS011;52726;48.852;9.152;2023-09-12T10:45:51;8.98;;;3.83;;
65971;SDS011;52726;48.852;9.152;2023-09-12T10:48:17;5.70;;;3.28;;
65971;SDS011;52726;48.852;9.152;2023-09-12T10:50:42;6.07;;;3.40;;
65971;SDS011;52726;48.852;9.152;2023-09-12T10:53:13;4.40;;;3.22;;
65971;SDS011;52726;48.852;9.152;2023-09-12T10:55:54;6.03;;;3.40;;
65971;SDS011;52726;48.852;9.152;2023-09-12T10:58:23;4.35;;;3.15;;
65971;SDS011;52726;48.852;9.152;2023-09-12T11:01:21;6.82;;;3.67;;
65971;SDS011;52726;48.852;9.152;2023-09-12T11:03:47;6.60;;;3.70;;
65971;SDS011;52726;48.852;9.152;2023-09-12T11:06:19;5.15;;;3.10;;
65971;SDS011;52726;48.852;9.152;2023-09-12T11:09:14;6.22;;;3.25;;
65971;SDS011;52726;48.852;9.152;2023-09-12T11:11:48;4.23;;;3.23;;
65971;SDS011;52726;48.852;9.152;2023-09-12T11:14:19;5.82;;;3.03;;
65971;SDS011;52726;48.852;9.152;2023-09-12T11:17:06;5.60;;;3.25;;
65971;SDS011;52726;48.852;9.152;2023-09-12T11:19:29;3.97;;;2.97;;
65971;SDS011;52726;48.852;9.152;2023-09-12T11:24:46;4.82;;;3.20;;
65971;SDS011;52726;48.852;9.152;2023-09-12T11:27:12;8.43;;;3.85;;
65971;SDS011;52726;48.852;9.152;2023-09-12T11:29:38;5.68;;;3.40;;
65971;SDS011;52726;48.852;9.152;2023-09-12T11:32:05;7.68;;;3.15;;
65971;SDS011;52726;48.852;9.152;2023-09-12T11:37:07;5.78;;;3.38;;
65971;SDS011;52726;48.852;9.152;2023-09-12T11:39:33;6.75;;;3.75;;
65971;SDS011;52726;48.852;9.152;2023-09-12T11:42:00;5.22;;;3.47;;
65971;SDS011;52726;48.852;9.152;2023-09-12T11:44:27;4.72;;;3.03;;
65971;SDS011;52726;48.852;9.152;2023-09-12T11:46:53;10.10;;;3.50;;
65971;SDS011;52726;48.852;9.152;2023-09-12T11:49:20;5.60;;;3.28;;
65971;SDS011;52726;48.852;9.152;2023-09-12T11:51:46;5.43;;;3.55;;
65971;SDS011;52726;48.852;9.152;2023-09-12T11:54:19;5.55;;;3.90;;
65971;SDS011;52726;48.852;9.152;2023-09-12T11:56:46;4.07;;;3.17;;
65971;SDS011;52726;48.852;9.152;2023-09-12T11:59:13;6.13;;;3.78;;
65971;SDS011;52726;48.852;9.152;2023-09-12T12:01:39;6.75;;;4.07;;
65971;SDS011;52726;48.852;9.152;2023-09-12T12:04:05;7.57;;;3.92;;
65971;SDS011;52726;48.852;9.152;2023-09-12T12:06:32;6.43;;;4.03;;
65971;SDS011;52726;48.852;9.152;2023-09-12T12:08:57;5.78;;;3.67;;
65971;SDS011;52726;48.852;9.152;2023-09-12T12:11:27;6.53;;;4.05;;
65971;SDS011;52726;48.852;9.152;2023-09-12T12:13:53;6.07;;;3.90;;
65971;SDS011;52726;48.852;9.152;2023-09-12T12:16:18;4.55;;;3.30;;
65971;SDS011;52726;48.852;9.152;2023-09-12T12:18:44;4.53;;;3.25;;
65971;SDS011;52726;48.852;9.152;2023-09-12T12:21:09;4.07;;;3.10;;
65971;SDS011;52726;48.852;9.152;2023-09-12T12:23:35;3.88;;;3.10;;
65971;SDS011;52726;48.852;9.152;2023-09-12T12:26:05;8.63;;;3.53;;
65971;SDS011;52726;48.852;9.152;2023-09-12T12:28:33;5.10;;;3.45;;
65971;SDS011;52726;48.852;9.152;2023-09-12T12:31:00;6.70;;;4.38;;
65971;SDS011;52726;48.852;9.152;2023-09-12T12:33:25;8.65;;;4.18;;
65971;SDS011;52726;48.852;9.152;2023-09-12T12:35:58;4.80;;;3.63;;
65971;SDS011;52726;48.852;9.152;2023-09-12T12:38:25;6.25;;;3.58;;
65971;SDS011;52726;48.852;9.152;2023-09-12T12:40:50;6.72;;;3.20;;
65971;SDS011;52726;48.852;9.152;2023-09-12T12:43:16;6.68;;;3.53;;
65971;SDS011;52726;48.852;9.152;2023-09-12T12:45:53;6.40;;;3.20;;
65971;SDS011;52726;48.852;9.152;2023-09-12T12:48:32;6.32;;;3.97;;
65971;SDS011;52726;48.852;9.152;2023-09-12T12:50:59;7.57;;;3.92;;
65971;SDS011;52726;48.852;9.152;2023-09-12T12:53:40;6.25;;;3.30;;
65971;SDS011;52726;48.852;9.152;2023-09-12T12:56:06;5.70;;;3.40;;
65971;SDS011;52726;48.852;9.152;2023-09-12T12:58:32;6.40;;;3.50;;
65971;SDS011;52726;48.852;9.152;2023-09-12T13:00:58;6.55;;;3.47;;
65971;SDS011;52726;48.852;9.152;2023-09-12T13:03:23;4.30;;;3.38;;
65971;SDS011;52726;48.852;9.152;2023-09-12T13:05:49;6.05;;;3.80;;
65971;SDS011;52726;48.852;9.152;2023-09-12T13:08:14;4.18;;;3.42;;
65971;SDS011;52726;48.852;9.152;2023-09-12T13:10:39;8.18;;;3.85;;
65971;SDS011;52726;48.852;9.152;2023-09-12T13:13:07;12.15;;;3.47;;
65971;SDS011;52726;48.852;9.152;2023-09-12T13:15:32;5.05;;;3.53;;
65971;SDS011;52726;48.852;9.152;2023-09-12T13:17:58;7.72;;;3.60;;
65971;SDS011;52726;48.852;9.152;2023-09-12T13:20:23;5.10;;;3.45;;
65971;SDS011;52726;48.852;9.152;2023-09-12T13:22:48;3.78;;;3.35;;
65971;SDS011;52726;48.852;9.152;2023-09-12T13:25:14;4.85;;;3.28;;
65971;SDS011;52726;48.852;9.152;2023-09-12T13:27:39;6.03;;;3.47;;
65971;SDS011;52726;48.852;9.152;2023-09-12T13:30:05;7.18;;;3.17;;
65971;SDS011;52726;48.852;9.152;2023-09-12T13:32:31;4.35;;;3.60;;
65971;SDS011;52726;48.852;9.152;2023-09-12T13:34:58;6.10;;;3.72;;
65971;SDS011;52726;48.852;9.152;2023-09-12T13:37:23;5.03;;;2.70;;
65971;SDS011;52726;48.852;9.152;2023-09-12T13:39:48;4.45;;;3.22;;
65971;SDS011;52726;48.852;9.152;2023-09-12T13:42:15;4.53;;;3.20;;
65971;SDS011;52726;48.852;9.152;2023-09-12T13:44:44;4.65;;;3.60;;
65971;SDS011;52726;48.852;9.152;2023-09-12T13:47:13;5.03;;;3.60;;
65971;SDS011;52726;48.852;9.152;2023-09-12T13:49:38;4.28;;;3.20;;
65971;SDS011;52726;48.852;9.152;2023-09-12T13:52:04;4.25;;;3.38;;
65971;SDS011;52726;48.852;9.152;2023-09-12T13:54:29;6.80;;;3.42;;
65971;SDS011;52726;48.852;9.152;2023-09-12T13:56:55;4.40;;;3.03;;
65971;SDS011;52726;48.852;9.152;2023-09-12T13:59:20;4.80;;;3.05;;
65971;SDS011;52726;48.852;9.152;2023-09-12T14:01:46;4.45;;;3.08;;
65971;SDS011;52726;48.852;9.152;2023-09-12T14:04:11;5.60;;;2.90;;
65971;SDS011;52726;48.852;9.152;2023-09-12T14:06:38;5.88;;;3.50;;
65971;SDS011;52726;48.852;9.152;2023-09-12T14:09:04;4.45;;;2.97;;
65971;SDS011;52726;48.852;9.152;2023-09-12T14:11:29;5.45;;;3.17;;
65971;SDS011;52726;48.852;9.152;2023-09-12T14:13:54;7.00;;;3.20;;
65971;SDS011;52726;48.852;9.152;2023-09-12T14:16:20;5.30;;;3.40;;
65971;SDS011;52726;48.852;9.152;2023-09-12T14:18:45;5.05;;;3.00;;
65971;SDS011;52726;48.852;9.152;2023-09-12T14:21:10;5.28;;;3.60;;
65971;SDS011;52726;48.852;9.152;2023-09-12T14:23:36;5.10;;;3.50;;
65971;SDS011;52726;48.852;9.152;2023-09-12T14:26:01;7.78;;;3.45;;
65971;SDS011;52726;48.852;9.152;2023-09-12T14:28:26;9.43;;;3.20;;
65971;SDS011;52726;48.852;9.152;2023-09-12T14:30:53;5.03;;;3.60;;
65971;SDS011;52726;48.852;9.152;2023-09-12T14:33:18;5.45;;;3.55;;
65971;SDS011;52726;48.852;9.152;2023-09-12T14:35:44;7.10;;;3.30;;
65971;SDS011;52726;48.852;9.152;2023-09-12T14:38:09;4.80;;;3.80;;
65971;SDS011;52726;48.852;9.152;2023-09-12T14:40:35;4.57;;;3.30;;
65971;SDS011;52726;48.852;9.152;2023-09-12T14:43:00;5.40;;;3.05;;
65971;SDS011;52726;48.852;9.152;2023-09-12T14:45:27;5.55;;;3.33;;
65971;SDS011;52726;48.852;9.152;2023-09-12T14:47:53;5.47;;;3.60;;
65971;SDS011;52726;48.852;9.152;2023-09-12T14:50:20;4.45;;;3.40;;